createdAt,value
2023-03-27T00:01:57.568Z,7.48
2023-03-27T00:07:03.896Z,7.37
2023-03-27T00:12:11.181Z,7.42
2023-03-27T00:17:16.279Z,7.35
2023-03-27T00:22:20.984Z,7.31
2023-03-27T00:27:28.665Z,7.30
2023-03-27T00:32:33.782Z,7.24
2023-03-27T00:37:38.688Z,7.35
2023-03-27T00:42:46.011Z,7.45
2023-03-27T00:47:55.393Z,7.40
2023-03-27T00:53:07.395Z,7.29
2023-03-27T00:58:19.966Z,7.35
2023-03-27T01:03:28.327Z,7.30
2023-03-27T01:08:38.155Z,7.37
2023-03-27T01:14:00.344Z,7.62
2023-03-27T01:19:42.338Z,7.47
2023-03-27T01:25:28.343Z,7.51
2023-03-27T01:30:42.389Z,7.41
2023-03-27T01:36:15.722Z,7.36
2023-03-27T01:41:30.360Z,7.28
2023-03-27T01:46:37.840Z,7.24
2023-03-27T01:51:49.012Z,7.26
2023-03-27T01:57:02.723Z,7.15
2023-03-27T02:02:13.755Z,7.25
2023-03-27T02:07:25.195Z,7.27
2023-03-27T02:12:34.870Z,7.21
2023-03-27T02:17:43.345Z,7.29
2023-03-27T02:22:49.013Z,7.34
2023-03-27T02:28:06.124Z,7.21
2023-03-27T02:33:23.626Z,7.23
2023-03-27T02:38:34.767Z,7.24
2023-03-27T02:43:49.309Z,7.15
2023-03-27T02:49:05.042Z,7.02
2023-03-27T02:54:14.764Z,7.10
2023-03-27T02:59:25.915Z,6.98
2023-03-27T03:04:32.828Z,7.05
2023-03-27T03:10:11.780Z,7.13
2023-03-27T03:15:18.996Z,6.97
2023-03-27T03:20:25.551Z,6.75
2023-03-27T03:25:31.665Z,6.62
2023-03-27T03:30:39.149Z,6.53
2023-03-27T03:35:48.761Z,6.26
2023-03-27T03:41:03.110Z,6.14
2023-03-27T03:46:10.114Z,6.15
2023-03-27T03:51:15.761Z,6.07
2023-03-27T03:56:20.187Z,6.14
2023-03-27T04:01:28.296Z,6.29
2023-03-27T04:06:38.555Z,6.37
2023-03-27T04:11:45.685Z,6.37
2023-03-27T04:17:34.540Z,6.65
2023-03-27T04:22:46.534Z,7.03
2023-03-27T04:27:53.951Z,7.33
2023-03-27T04:33:23.617Z,7.61
2023-03-27T04:38:43.037Z,7.87
2023-03-27T04:43:52.085Z,8.17
2023-03-27T04:49:02.012Z,8.56
2023-03-27T04:54:27.405Z,8.63
2023-03-27T04:59:32.347Z,8.90
2023-03-27T05:04:59.063Z,9.03
2023-03-27T05:10:10.655Z,9.16
2023-03-27T05:15:17.169Z,9.34
2023-03-27T05:20:25.281Z,9.53
2023-03-27T05:25:29.657Z,9.52
2023-03-27T05:30:35.548Z,9.47
2023-03-27T05:36:03.281Z,9.62
2023-03-27T05:41:10.014Z,9.76
2023-03-27T05:46:21.305Z,9.97
2023-03-27T05:51:39.362Z,9.98
2023-03-27T06:19:02.930Z,11.13
2023-03-27T06:31:14.932Z,12.17
2023-03-27T06:36:33.271Z,12.53
2023-03-27T06:41:37.600Z,12.77
2023-03-27T06:46:45.447Z,13.15
2023-03-27T06:52:18.435Z,13.48
2023-03-27T06:57:22.850Z,14.16
2023-03-27T07:02:32.023Z,14.19
2023-03-27T07:13:24.078Z,14.52
2023-03-27T07:18:29.095Z,14.84
2023-03-27T07:23:32.656Z,14.69
2023-03-27T07:28:42.354Z,14.39
2023-03-27T07:33:49.353Z,14.75
2023-03-27T07:38:53.025Z,14.82
2023-03-27T07:44:06.015Z,15.10
2023-03-27T07:49:39.967Z,15.90
2023-03-27T07:54:49.076Z,16.42
2023-03-27T07:59:56.526Z,16.53
2023-03-27T08:05:37.203Z,16.41
2023-03-27T08:10:46.501Z,16.74
2023-03-27T08:15:53.074Z,16.19
2023-03-27T08:21:05.647Z,16.75
2023-03-27T08:26:10.666Z,16.54
2023-03-27T08:31:31.535Z,16.69
2023-03-27T08:36:42.558Z,16.62
2023-03-27T08:41:55.146Z,16.37
2023-03-27T08:47:12.953Z,17.48
2023-03-27T08:52:27.377Z,17.29
2023-03-27T08:57:34.512Z,17.81
2023-03-27T09:02:58.171Z,18.15
2023-03-27T09:08:12.773Z,17.07
2023-03-27T09:13:19.990Z,17.08
2023-03-27T09:18:28.099Z,16.87
2023-03-27T09:23:40.987Z,17.02
2023-03-27T09:28:51.401Z,17.14
2023-03-27T09:34:04.518Z,16.81
2023-03-27T09:39:15.548Z,17.50
2023-03-27T09:44:25.538Z,17.56
2023-03-27T09:49:32.618Z,17.41
2023-03-27T09:54:54.005Z,18.25
2023-03-27T10:00:28.600Z,17.98
2023-03-27T10:05:33.844Z,17.27
2023-03-27T10:10:45.905Z,16.76
2023-03-27T10:16:18.171Z,17.29
2023-03-27T10:21:35.587Z,17.08
2023-03-27T10:26:42.808Z,17.02
2023-03-27T10:31:52.114Z,17.73
2023-03-27T10:37:21.748Z,18.15
2023-03-27T10:42:34.504Z,17.18
2023-03-27T10:47:38.629Z,16.99
2023-03-27T10:52:51.986Z,17.53
2023-03-27T10:58:24.840Z,18.26
2023-03-27T11:03:36.013Z,17.57
2023-03-27T11:08:53.492Z,18.64
2023-03-27T11:14:06.180Z,18.84
2023-03-27T11:19:40.644Z,19.00
2023-03-27T11:25:21.279Z,17.71
2023-03-27T11:30:45.486Z,18.52
2023-03-27T11:35:54.788Z,18.92
2023-03-27T11:41:24.782Z,17.50
2023-03-27T11:46:44.285Z,17.21
2023-03-27T11:52:02.797Z,16.87
2023-03-27T11:57:14.467Z,16.75
2023-03-27T12:02:58.680Z,16.66
2023-03-27T12:08:13.581Z,16.60
2023-03-27T12:14:14.022Z,16.64
2023-03-27T12:19:55.544Z,17.44
2023-03-27T12:25:27.268Z,18.38
2023-03-27T12:30:57.567Z,17.99
2023-03-27T12:36:06.661Z,18.21
2023-03-27T12:41:21.521Z,18.11
2023-03-27T12:46:39.162Z,17.29
2023-03-27T12:52:04.587Z,16.47
2023-03-27T12:57:43.708Z,16.09
2023-03-27T13:03:28.473Z,15.78
2023-03-27T13:09:19.605Z,15.82
2023-03-27T13:15:11.631Z,15.83
2023-03-27T13:20:28.701Z,15.77
2023-03-27T13:25:43.495Z,16.39
2023-03-27T13:30:50.074Z,16.27
2023-03-27T13:36:24.970Z,16.51
2023-03-27T13:41:53.675Z,16.33
2023-03-27T13:47:16.182Z,16.29
2023-03-27T13:53:00.551Z,16.06
2023-03-27T13:58:39.969Z,16.01
2023-03-27T14:04:15.748Z,16.13
2023-03-27T14:09:35.464Z,15.96
2023-03-27T14:14:59.753Z,16.07
2023-03-27T14:20:23.676Z,15.95
2023-03-27T14:25:34.192Z,15.67
2023-03-27T14:30:56.334Z,15.75
2023-03-27T14:36:26.032Z,15.53
2023-03-27T14:41:33.136Z,15.40
2023-03-27T14:46:39.399Z,15.30
2023-03-27T14:51:49.727Z,14.78
2023-03-27T14:57:15.190Z,14.23
2023-03-27T15:02:32.006Z,14.16
2023-03-27T15:07:42.168Z,14.21
2023-03-27T15:12:57.482Z,14.24
2023-03-27T15:18:05.167Z,14.23
2023-03-27T15:23:17.152Z,13.93
2023-03-27T15:28:27.549Z,13.51
2023-03-27T15:33:36.719Z,13.08
2023-03-27T15:38:41.208Z,12.88
2023-03-27T15:43:46.895Z,12.80
2023-03-27T15:48:55.551Z,12.69
2023-03-27T15:53:59.168Z,12.43
2023-03-27T15:59:06.672Z,12.17
2023-03-27T16:04:14.645Z,12.07
2023-03-27T16:09:25.738Z,11.92
2023-03-27T16:14:36.070Z,11.83
2023-03-27T16:19:44.161Z,11.76
2023-03-27T16:24:47.619Z,11.62
2023-03-27T16:29:53.010Z,11.57
2023-03-27T16:34:56.552Z,11.47
2023-03-27T16:39:59.962Z,11.43
2023-03-27T16:45:05.688Z,11.44
2023-03-27T16:50:13.742Z,11.34
2023-03-27T16:55:17.474Z,11.42
2023-03-27T17:00:23.006Z,11.45
2023-03-27T17:05:26.652Z,11.40
2023-03-27T17:10:31.184Z,11.35
2023-03-27T17:15:38.644Z,11.27
2023-03-27T17:20:42.381Z,11.32
2023-03-27T17:25:46.210Z,11.41
2023-03-27T17:31:03.330Z,11.59
2023-03-27T17:36:12.579Z,11.73
2023-03-27T17:41:17.630Z,11.86
2023-03-27T17:46:24.126Z,11.83
2023-03-27T17:51:28.041Z,11.83
2023-03-27T17:56:31.513Z,11.81
2023-03-27T18:01:38.833Z,11.79
2023-03-27T18:06:42.626Z,11.99
2023-03-27T18:11:46.130Z,11.81
2023-03-27T18:16:51.023Z,11.78
2023-03-27T18:21:54.508Z,11.86
2023-03-27T18:27:00.742Z,11.64
2023-03-27T18:32:07.182Z,11.69
2023-03-27T18:37:15.160Z,11.76
2023-03-27T18:42:18.605Z,11.41
2023-03-27T18:47:26.497Z,11.37
2023-03-27T18:52:30.029Z,11.42
2023-03-27T18:57:34.456Z,11.30
2023-03-27T19:02:39.338Z,11.23
2023-03-27T19:07:44.644Z,11.22
2023-03-27T19:12:50.714Z,11.24
2023-03-27T19:18:30.752Z,11.23
2023-03-27T19:23:53.063Z,11.23
2023-03-27T19:29:01.905Z,11.17
2023-03-27T19:34:06.936Z,11.20
2023-03-27T19:39:10.528Z,11.08
2023-03-27T19:44:16.120Z,11.13
2023-03-27T19:49:22.300Z,11.11
2023-03-27T19:54:41.984Z,11.06
2023-03-27T19:59:45.386Z,11.12
2023-03-27T20:04:50.235Z,10.98
2023-03-27T20:09:55.311Z,10.93
2023-03-27T20:15:10.936Z,10.83
2023-03-27T20:20:20.093Z,10.78
2023-03-27T20:25:23.490Z,10.63
2023-03-27T20:30:27.656Z,10.56
2023-03-27T20:35:36.607Z,10.46
2023-03-27T20:45:53.124Z,10.40
2023-03-27T20:50:58.322Z,10.23
2023-03-27T20:56:03.850Z,10.24
2023-03-27T21:01:09.465Z,9.99
2023-03-27T21:06:17.399Z,9.86
2023-03-27T21:11:20.996Z,9.96
2023-03-27T21:16:24.732Z,10.04
2023-03-27T21:21:29.572Z,10.13
2023-03-27T21:26:33.507Z,10.03
2023-03-27T21:31:36.862Z,10.15
2023-03-27T21:36:42.011Z,10.13
2023-03-27T21:41:46.731Z,10.09
2023-03-27T21:46:50.109Z,10.01
2023-03-27T21:51:55.233Z,9.98
2023-03-27T21:56:58.766Z,9.93
2023-03-27T22:02:02.428Z,9.85
2023-03-27T22:07:07.447Z,9.81
2023-03-27T22:12:11.174Z,9.81
2023-03-27T22:17:14.597Z,9.71
2023-03-27T22:22:19.398Z,9.58
2023-03-27T22:27:23.277Z,9.68
2023-03-27T22:32:27.242Z,9.73
2023-03-27T22:37:32.172Z,9.63
2023-03-27T22:42:35.774Z,9.67
2023-03-27T22:47:39.240Z,9.67
2023-03-27T22:52:44.064Z,9.66
2023-03-27T22:57:47.485Z,9.66
2023-03-27T23:02:51.100Z,9.63
2023-03-27T23:07:55.965Z,9.71
2023-03-27T23:12:59.396Z,9.69
2023-03-27T23:18:03.672Z,9.64
2023-03-27T23:23:08.527Z,9.63
2023-03-27T23:28:12.166Z,9.53
2023-03-27T23:33:15.560Z,9.40
2023-03-27T23:38:20.447Z,9.22
2023-03-27T23:43:23.934Z,9.09
2023-03-27T23:48:27.993Z,8.98
2023-03-27T23:53:33.079Z,8.79
2023-03-27T23:58:37.527Z,8.64
